createdAt,value
2018-06-12T00:01:39.164Z,22.29
2018-06-12T00:04:08.210Z,22.22
2018-06-12T00:06:37.147Z,22.13
2018-06-12T00:09:07.465Z,22.08
2018-06-12T00:11:36.480Z,22.11
2018-06-12T00:14:05.480Z,22.12
2018-06-12T00:16:34.548Z,22.10
2018-06-12T00:19:03.479Z,22.00
2018-06-12T00:21:32.468Z,22.00
2018-06-12T00:24:01.513Z,21.98
2018-06-12T00:26:30.524Z,21.96
2018-06-12T00:28:59.451Z,22.04
2018-06-12T00:31:28.440Z,22.03
2018-06-12T00:33:57.481Z,21.98
2018-06-12T00:36:26.541Z,21.93
2018-06-12T00:38:55.668Z,21.88
2018-06-12T00:41:24.597Z,21.85
2018-06-12T00:43:53.580Z,21.93
2018-06-12T00:46:22.584Z,22.02
2018-06-12T00:48:51.515Z,21.98
2018-06-12T00:51:20.514Z,21.91
2018-06-12T00:53:49.635Z,21.89
2018-06-12T00:57:33.273Z,21.86
2018-06-12T01:00:02.356Z,21.88
2018-06-12T01:02:31.397Z,21.82
2018-06-12T01:05:00.332Z,21.81
2018-06-12T01:07:29.377Z,21.79
2018-06-12T01:09:58.356Z,21.74
2018-06-12T01:12:27.412Z,21.66
2018-06-12T01:14:56.488Z,21.57
2018-06-12T01:17:26.308Z,21.56
2018-06-12T01:19:55.292Z,21.49
2018-06-12T01:22:24.299Z,21.37
2018-06-12T01:24:53.388Z,21.24
2018-06-12T01:27:22.429Z,21.10
2018-06-12T01:29:51.432Z,21.08
2018-06-12T01:32:20.376Z,21.04
2018-06-12T01:34:49.380Z,20.95
2018-06-12T01:37:18.436Z,20.87
2018-06-12T01:39:47.424Z,20.83
2018-06-12T01:42:16.465Z,20.78
2018-06-12T01:44:45.513Z,20.74
2018-06-12T01:47:14.553Z,20.78
2018-06-12T01:49:43.544Z,20.82
2018-06-12T01:52:12.596Z,20.75
2018-06-12T01:54:41.585Z,20.64
2018-06-12T01:57:10.569Z,20.55
2018-06-12T01:59:39.621Z,20.52
2018-06-12T02:02:08.633Z,20.43
2018-06-12T02:04:37.644Z,20.38
2018-06-12T02:07:06.729Z,20.32
2018-06-12T02:09:35.716Z,20.22
2018-06-12T02:12:04.647Z,20.12
2018-06-12T02:14:33.736Z,20.07
2018-06-12T02:17:02.857Z,19.99
2018-06-12T02:19:31.901Z,19.96
2018-06-12T02:22:01.040Z,19.95
2018-06-12T02:24:29.975Z,19.91
2018-06-12T02:26:58.948Z,19.94
2018-06-12T02:29:27.997Z,20.00
2018-06-12T02:31:57.030Z,19.99
2018-06-12T02:34:26.085Z,20.01
2018-06-12T02:36:55.078Z,20.02
2018-06-12T02:39:24.157Z,20.05
2018-06-12T02:41:53.165Z,20.12
2018-06-12T02:44:22.216Z,20.21
2018-06-12T02:46:51.217Z,20.33
2018-06-12T02:49:20.182Z,20.42
2018-06-12T02:51:49.255Z,20.53
2018-06-12T02:54:18.273Z,20.64
2018-06-12T02:56:47.363Z,20.75
2018-06-12T02:59:16.608Z,20.87
2018-06-12T03:01:45.544Z,21.02
2018-06-12T03:04:14.542Z,21.10
2018-06-12T03:06:43.541Z,21.22
2018-06-12T03:09:12.464Z,21.32
2018-06-12T03:11:41.508Z,21.41
2018-06-12T03:14:10.572Z,21.43
2018-06-12T03:16:39.564Z,21.44
2018-06-12T03:19:08.661Z,21.48
2018-06-12T03:21:37.655Z,21.53
2018-06-12T03:24:06.852Z,21.50
2018-06-12T03:26:35.815Z,21.49
2018-06-12T03:29:04.813Z,21.47
2018-06-12T03:31:33.805Z,21.51
2018-06-12T03:34:03.042Z,21.49
2018-06-12T03:36:32.170Z,21.54
2018-06-12T03:39:01.222Z,21.64
2018-06-12T03:41:30.163Z,21.73
2018-06-12T03:43:59.269Z,21.83
2018-06-12T03:46:28.327Z,21.94
2018-06-12T03:48:57.324Z,22.12
2018-06-12T03:51:26.408Z,22.34
2018-06-12T03:53:55.426Z,22.52
2018-06-12T03:56:24.407Z,22.71
2018-06-12T03:58:53.469Z,22.98
2018-06-12T04:01:22.470Z,23.22
2018-06-12T04:03:51.411Z,23.50
2018-06-12T04:06:20.428Z,23.82
2018-06-12T04:08:49.535Z,24.40
2018-06-12T04:11:18.476Z,25.20
2018-06-12T04:13:47.585Z,25.51
2018-06-12T04:16:16.648Z,25.62
2018-06-12T04:18:45.725Z,25.62
2018-06-12T04:21:14.727Z,25.62
2018-06-12T04:23:43.652Z,25.94
2018-06-12T04:26:12.628Z,26.68
2018-06-12T04:28:41.632Z,28.52
2018-06-12T04:31:10.656Z,30.12
2018-06-12T04:33:39.649Z,30.37
2018-06-12T04:36:08.625Z,29.93
2018-06-12T04:38:37.581Z,29.20
2018-06-12T04:41:06.511Z,28.70
2018-06-12T04:43:35.579Z,28.54
2018-06-12T04:46:04.574Z,28.48
2018-06-12T04:48:33.589Z,28.72
2018-06-12T04:51:02.589Z,29.57
2018-06-12T04:53:31.546Z,29.67
2018-06-12T04:56:00.496Z,29.73
2018-06-12T04:58:29.594Z,29.46
2018-06-12T05:00:58.533Z,29.04
2018-06-12T05:03:27.532Z,28.64
2018-06-12T05:05:56.657Z,28.37
2018-06-12T05:08:25.721Z,28.16
2018-06-12T05:10:54.722Z,28.11
2018-06-12T05:13:23.836Z,28.17
2018-06-12T05:15:52.829Z,28.21
2018-06-12T05:18:21.836Z,28.31
2018-06-12T05:20:50.896Z,28.85
2018-06-12T05:23:19.944Z,29.43
2018-06-12T05:25:48.956Z,29.80
2018-06-12T05:28:18.024Z,30.15
2018-06-12T05:30:47.049Z,30.16
2018-06-12T05:33:16.076Z,30.25
2018-06-12T05:35:45.122Z,30.42
2018-06-12T05:38:14.144Z,31.01
2018-06-12T05:40:43.140Z,32.23
2018-06-12T05:43:12.238Z,33.06
2018-06-12T05:45:41.348Z,33.44
2018-06-12T05:48:10.345Z,33.41
2018-06-12T05:50:39.348Z,33.38
2018-06-12T05:53:08.355Z,33.34
2018-06-12T05:55:37.416Z,32.93
2018-06-12T05:58:06.589Z,32.52
2018-06-12T06:00:35.588Z,32.55
2018-06-12T06:03:04.601Z,32.73
2018-06-12T06:05:33.597Z,33.27
2018-06-12T06:08:02.594Z,34.48
2018-06-12T06:10:31.578Z,35.63
2018-06-12T06:13:00.701Z,36.09
2018-06-12T06:15:29.765Z,36.92
2018-06-12T06:17:59.021Z,38.39
2018-06-12T06:20:28.055Z,38.83
2018-06-12T06:22:57.053Z,37.85
2018-06-12T06:25:26.012Z,37.27
2018-06-12T06:27:55.084Z,38.46
2018-06-12T06:30:24.111Z,39.86
2018-06-12T06:32:53.133Z,39.86
2018-06-12T06:35:22.144Z,39.83
2018-06-12T06:37:51.202Z,39.72
2018-06-12T06:40:20.168Z,39.41
2018-06-12T06:42:49.240Z,39.86
2018-06-12T06:45:18.266Z,40.47
2018-06-12T06:47:47.355Z,41.12
2018-06-12T06:50:16.342Z,41.66
2018-06-12T06:52:45.316Z,41.99
2018-06-12T06:55:14.330Z,42.15
2018-06-12T06:57:43.365Z,42.23
2018-06-12T07:00:12.412Z,41.49
2018-06-12T07:02:55.913Z,40.25
2018-06-12T07:05:25.030Z,40.18
2018-06-12T07:07:54.129Z,40.57
2018-06-12T07:10:23.160Z,41.08
2018-06-12T07:12:52.157Z,41.79
2018-06-12T07:15:21.116Z,41.41
2018-06-12T07:17:50.109Z,41.04
2018-06-12T07:21:32.800Z,40.87
2018-06-12T07:24:01.757Z,41.59
2018-06-12T07:26:30.744Z,42.44
2018-06-12T07:28:59.728Z,41.96
2018-06-12T07:31:28.734Z,41.61
2018-06-12T07:33:57.804Z,41.22
2018-06-12T07:36:26.823Z,41.45
2018-06-12T07:38:55.840Z,41.86
2018-06-12T07:41:24.788Z,42.37
2018-06-12T07:43:53.732Z,42.67
2018-06-12T07:46:22.813Z,43.05
2018-06-12T07:48:51.832Z,42.40
2018-06-12T07:51:20.837Z,41.59
2018-06-12T07:53:49.841Z,40.97
2018-06-12T07:56:18.800Z,40.02
2018-06-12T07:58:47.764Z,39.66
2018-06-12T08:01:16.835Z,39.24
2018-06-12T08:03:45.968Z,38.82
2018-06-12T08:06:15.022Z,38.37
2018-06-12T08:08:44.053Z,38.05
2018-06-12T08:11:13.016Z,37.94
2018-06-12T08:13:42.029Z,37.90
2018-06-12T08:16:11.049Z,37.95
2018-06-12T08:18:40.111Z,37.85
2018-06-12T08:21:09.162Z,37.83
2018-06-12T08:23:38.115Z,37.11
2018-06-12T08:26:07.057Z,36.98
2018-06-12T08:28:36.188Z,36.92
2018-06-12T08:31:05.157Z,37.04
2018-06-12T08:33:34.110Z,36.97
2018-06-12T08:36:03.117Z,36.80
2018-06-12T08:38:32.094Z,36.40
2018-06-12T08:41:01.106Z,36.18
2018-06-12T08:43:30.073Z,36.32
2018-06-12T08:45:59.114Z,36.50
2018-06-12T08:48:28.102Z,36.52
2018-06-12T08:50:57.056Z,36.36
2018-06-12T08:53:26.073Z,36.27
2018-06-12T08:55:55.028Z,36.42
2018-06-12T08:58:24.033Z,36.45
2018-06-12T09:00:53.011Z,36.45
2018-06-12T09:03:22.042Z,36.32
2018-06-12T09:05:51.185Z,36.21
2018-06-12T09:08:20.216Z,36.14
2018-06-12T09:10:49.233Z,35.87
2018-06-12T09:13:18.204Z,35.68
2018-06-12T09:15:47.221Z,35.96
2018-06-12T09:18:16.280Z,36.24
2018-06-12T09:20:45.301Z,36.50
2018-06-12T09:23:14.309Z,36.85
2018-06-12T09:25:43.338Z,37.12
2018-06-12T09:28:12.367Z,37.19
2018-06-12T09:30:41.378Z,37.08
2018-06-12T09:33:10.328Z,37.09
2018-06-12T09:35:39.269Z,36.90
2018-06-12T09:38:08.289Z,36.84
2018-06-12T09:40:37.288Z,36.79
2018-06-12T09:43:06.448Z,37.01
2018-06-12T09:45:35.392Z,37.17
2018-06-12T09:48:04.457Z,37.65
2018-06-12T09:50:33.478Z,38.03
2018-06-12T09:53:02.432Z,38.49
2018-06-12T09:55:31.498Z,39.06
2018-06-12T09:58:00.456Z,39.36
2018-06-12T10:00:34.488Z,39.65
2018-06-12T10:03:03.561Z,39.71
2018-06-12T10:05:32.537Z,39.96
2018-06-12T10:08:01.568Z,39.98
2018-06-12T10:10:30.582Z,39.54
2018-06-12T10:12:59.660Z,39.52
2018-06-12T10:15:28.685Z,39.52
2018-06-12T10:17:57.649Z,39.46
2018-06-12T10:20:26.610Z,39.76
2018-06-12T10:22:55.569Z,39.73
2018-06-12T10:25:24.636Z,39.58
2018-06-12T10:27:53.669Z,39.86
2018-06-12T10:30:22.705Z,39.27
2018-06-12T10:32:51.714Z,39.50
2018-06-12T10:35:20.736Z,40.03
2018-06-12T10:37:49.812Z,39.90
2018-06-12T10:40:18.777Z,39.17
2018-06-12T10:42:47.773Z,39.60
2018-06-12T10:45:16.781Z,40.19
2018-06-12T10:47:45.827Z,40.57
2018-06-12T10:50:14.889Z,41.00
2018-06-12T10:52:43.887Z,41.09
2018-06-12T10:55:12.930Z,41.35
2018-06-12T10:57:41.948Z,41.82
2018-06-12T11:00:10.951Z,41.30
2018-06-12T11:02:40.023Z,41.72
2018-06-12T11:05:09.109Z,41.54
2018-06-12T11:07:38.100Z,41.82
2018-06-12T11:10:07.073Z,42.13
2018-06-12T11:12:36.126Z,42.26
2018-06-12T11:15:05.159Z,41.95
2018-06-12T11:17:34.241Z,41.09
2018-06-12T11:20:03.288Z,40.53
2018-06-12T11:22:32.298Z,40.19
2018-06-12T11:25:01.374Z,41.01
2018-06-12T11:27:30.517Z,41.61
2018-06-12T11:29:59.472Z,41.90
2018-06-12T11:32:28.445Z,41.41
2018-06-12T11:34:57.456Z,41.17
2018-06-12T11:37:26.479Z,40.97
2018-06-12T11:39:55.496Z,40.88
2018-06-12T11:42:24.517Z,40.80
2018-06-12T11:44:53.481Z,41.14
2018-06-12T11:47:22.472Z,41.93
2018-06-12T11:49:51.538Z,41.95
2018-06-12T11:52:20.634Z,42.53
2018-06-12T11:54:49.580Z,43.31
2018-06-12T11:57:18.540Z,43.67
2018-06-12T11:59:47.557Z,43.73
2018-06-12T12:02:16.609Z,44.71
2018-06-12T12:04:45.784Z,45.13
2018-06-12T12:07:14.808Z,45.51
2018-06-12T12:09:43.787Z,45.53
2018-06-12T12:12:12.787Z,45.25
2018-06-12T12:14:41.804Z,45.15
2018-06-12T12:17:10.885Z,44.94
2018-06-12T12:19:39.833Z,44.92
2018-06-12T12:22:08.844Z,45.87
2018-06-12T12:24:37.829Z,46.41
2018-06-12T12:27:06.807Z,46.79
2018-06-12T12:29:35.887Z,46.88
2018-06-12T12:32:05.022Z,47.24
2018-06-12T12:34:33.981Z,47.35
2018-06-12T12:37:02.936Z,47.79
2018-06-12T12:39:32.007Z,47.97
2018-06-12T12:42:01.026Z,47.91
2018-06-12T12:44:30.027Z,47.13
2018-06-12T12:46:59.025Z,46.59
2018-06-12T12:49:28.040Z,45.99
2018-06-12T12:51:56.992Z,45.98
2018-06-12T12:54:25.985Z,46.29
2018-06-12T12:56:55.052Z,46.44
2018-06-12T12:59:24.014Z,46.13
2018-06-12T13:01:52.965Z,46.50
2018-06-12T13:04:21.992Z,46.20
2018-06-12T13:06:51.008Z,45.79
2018-06-12T13:09:20.027Z,45.62
2018-06-12T13:11:48.968Z,44.82
2018-06-12T13:14:17.916Z,44.38
2018-06-12T13:16:46.928Z,44.06
2018-06-12T13:19:15.977Z,42.75
2018-06-12T13:21:45.044Z,41.09
2018-06-12T13:24:13.980Z,40.06
2018-06-12T13:26:43.135Z,39.72
2018-06-12T13:29:11.988Z,39.10
2018-06-12T13:31:41.037Z,38.72
2018-06-12T13:34:10.052Z,39.17
2018-06-12T13:36:39.080Z,40.04
2018-06-12T13:39:08.141Z,41.23
2018-06-12T13:41:37.172Z,42.50
2018-06-12T13:44:06.324Z,42.92
2018-06-12T13:46:35.396Z,42.99
2018-06-12T13:49:04.368Z,43.13
2018-06-12T13:51:33.351Z,42.51
2018-06-12T13:54:02.304Z,41.55
2018-06-12T13:56:31.326Z,40.45
2018-06-12T13:59:00.269Z,39.47
2018-06-12T14:01:29.319Z,38.93
2018-06-12T14:03:58.351Z,38.25
2018-06-12T14:06:27.354Z,37.76
2018-06-12T14:08:56.470Z,37.26
2018-06-12T14:11:25.472Z,36.71
2018-06-12T14:13:54.476Z,36.22
2018-06-12T14:16:23.435Z,35.79
2018-06-12T14:18:52.380Z,35.26
2018-06-12T14:21:21.388Z,35.03
2018-06-12T14:23:50.389Z,34.81
2018-06-12T14:26:19.421Z,34.72
2018-06-12T14:28:48.378Z,34.70
2018-06-12T14:31:17.332Z,34.62
2018-06-12T14:33:46.335Z,34.49
2018-06-12T14:36:15.281Z,34.27
2018-06-12T14:38:44.296Z,34.13
2018-06-12T14:41:13.324Z,34.05
2018-06-12T14:43:42.337Z,33.98
2018-06-12T14:46:11.345Z,33.96
2018-06-12T14:48:40.292Z,33.89
2018-06-12T14:51:09.262Z,33.90
2018-06-12T14:53:38.280Z,33.90
2018-06-12T14:56:07.401Z,33.88
2018-06-12T14:58:36.496Z,33.81
2018-06-12T15:01:05.593Z,33.79
2018-06-12T15:03:34.556Z,33.88
2018-06-12T15:06:03.662Z,33.92
2018-06-12T15:08:32.686Z,33.94
2018-06-12T15:11:01.753Z,33.85
2018-06-12T15:13:30.814Z,33.79
2018-06-12T15:15:59.820Z,33.75
2018-06-12T15:18:28.909Z,33.72
2018-06-12T15:20:57.913Z,33.73
2018-06-12T15:23:26.969Z,33.64
2018-06-12T15:25:56.022Z,33.56
2018-06-12T15:28:25.093Z,33.44
2018-06-12T15:30:54.078Z,33.32
2018-06-12T15:33:24.045Z,33.25
2018-06-12T15:35:53.101Z,33.21
2018-06-12T15:38:22.078Z,33.17
2018-06-12T15:40:51.048Z,33.06
2018-06-12T15:43:20.120Z,33.06
2018-06-12T15:45:49.191Z,33.04
2018-06-12T15:48:18.273Z,33.04
2018-06-12T15:50:47.226Z,33.03
2018-06-12T15:53:16.168Z,33.05
2018-06-12T15:55:45.181Z,33.03
2018-06-12T15:58:14.148Z,33.02
2018-06-12T16:00:43.329Z,32.95
2018-06-12T16:03:12.321Z,32.84
2018-06-12T16:05:41.272Z,32.80
2018-06-12T16:08:10.288Z,32.80
2018-06-12T16:10:39.321Z,32.77
2018-06-12T16:13:08.382Z,32.66
2018-06-12T16:15:37.352Z,32.54
2018-06-12T16:18:06.377Z,32.40
2018-06-12T16:20:35.389Z,32.29
2018-06-12T16:23:19.186Z,32.20
2018-06-12T16:25:48.245Z,32.08
2018-06-12T16:28:17.329Z,31.97
2018-06-12T16:30:46.430Z,31.86
2018-06-12T16:33:15.399Z,31.78
2018-06-12T16:35:44.404Z,31.68
2018-06-12T16:38:13.570Z,31.58
2018-06-12T16:40:42.523Z,31.48
2018-06-12T16:43:11.500Z,31.36
2018-06-12T16:45:40.484Z,31.25
2018-06-12T16:48:09.501Z,31.17
2018-06-12T16:50:38.522Z,31.05
2018-06-12T16:53:07.608Z,30.96
2018-06-12T16:55:36.556Z,30.89
2018-06-12T16:58:05.704Z,30.81
2018-06-12T17:00:34.701Z,30.70
2018-06-12T17:03:04.078Z,30.62
2018-06-12T17:05:33.088Z,30.55
2018-06-12T17:08:02.117Z,30.46
2018-06-12T17:10:31.134Z,30.34
2018-06-12T17:13:00.082Z,30.27
2018-06-12T17:15:29.097Z,30.16
2018-06-12T17:17:58.100Z,30.03
2018-06-12T17:20:27.097Z,29.98
2018-06-12T17:22:56.108Z,29.89
2018-06-12T17:25:25.097Z,29.81
2018-06-12T17:27:54.113Z,29.75
2018-06-12T17:30:23.121Z,29.68
2018-06-12T17:32:52.145Z,29.58
2018-06-12T17:35:21.166Z,29.51
2018-06-12T17:37:50.237Z,29.39
2018-06-12T17:40:19.346Z,29.32
2018-06-12T17:42:48.381Z,29.18
2018-06-12T17:45:20.076Z,29.09
2018-06-12T17:47:49.117Z,28.98
2018-06-12T17:50:22.284Z,28.85
2018-06-12T17:52:51.364Z,28.78
2018-06-12T17:55:20.306Z,28.70
2018-06-12T17:57:49.270Z,28.64
2018-06-12T18:00:18.272Z,28.57
2018-06-12T18:02:47.237Z,28.51
2018-06-12T18:05:16.247Z,28.48
2018-06-12T18:07:45.252Z,28.39
2018-06-12T18:10:14.214Z,28.36
2018-06-12T18:12:43.170Z,28.34
2018-06-12T18:15:12.700Z,28.31
2018-06-12T18:17:41.829Z,28.25
2018-06-12T18:20:10.790Z,28.24
2018-06-12T18:22:39.798Z,28.25
2018-06-12T18:25:08.761Z,28.25
2018-06-12T18:27:37.805Z,28.28
2018-06-12T18:30:06.911Z,28.22
2018-06-12T18:32:35.908Z,28.20
2018-06-12T18:35:04.884Z,28.23
2018-06-12T18:37:33.934Z,28.28
2018-06-12T18:40:02.938Z,28.28
2018-06-12T18:42:31.996Z,28.25
2018-06-12T18:45:00.947Z,28.24
2018-06-12T18:47:29.957Z,28.23
2018-06-12T18:49:58.986Z,28.20
2018-06-12T18:52:28.033Z,28.18
2018-06-12T18:54:57.037Z,28.19
2018-06-12T18:57:26.062Z,28.15
2018-06-12T18:59:55.080Z,28.09
2018-06-12T19:02:24.124Z,28.07
2018-06-12T19:04:53.084Z,28.01
2018-06-12T19:07:22.206Z,27.96
2018-06-12T19:09:51.220Z,27.91
2018-06-12T19:12:20.189Z,27.90
2018-06-12T19:14:49.189Z,27.85
2018-06-12T19:17:18.226Z,27.80
2018-06-12T19:19:47.318Z,27.77
2018-06-12T19:22:16.298Z,27.76
2018-06-12T19:24:45.356Z,27.74
2018-06-12T19:27:14.442Z,27.74
2018-06-12T19:29:43.456Z,27.70
2018-06-12T19:32:17.553Z,27.61
2018-06-12T19:34:46.569Z,27.61
2018-06-12T19:37:15.594Z,27.55
2018-06-12T19:39:44.592Z,27.53
2018-06-12T19:42:13.620Z,27.47
2018-06-12T19:44:42.644Z,27.42
2018-06-12T19:47:11.657Z,27.37
2018-06-12T19:49:40.685Z,27.38
2018-06-12T19:52:09.692Z,27.35
2018-06-12T19:54:38.758Z,27.31
2018-06-12T19:57:07.681Z,27.25
2018-06-12T19:59:36.747Z,27.22
2018-06-12T20:02:05.836Z,27.16
2018-06-12T20:04:34.784Z,27.11
2018-06-12T20:07:03.831Z,27.07
2018-06-12T20:09:32.772Z,27.05
2018-06-12T20:12:01.764Z,27.04
2018-06-12T20:14:30.764Z,27.03
2018-06-12T20:16:59.747Z,26.93
2018-06-12T20:19:28.709Z,26.87
2018-06-12T20:21:57.701Z,26.79
2018-06-12T20:24:26.698Z,26.70
2018-06-12T20:26:55.631Z,26.64
2018-06-12T20:29:24.564Z,26.58
2018-06-12T20:31:53.593Z,26.49
2018-06-12T20:34:22.542Z,26.41
2018-06-12T20:36:51.537Z,26.35
2018-06-12T20:39:20.575Z,26.27
2018-06-12T20:41:49.581Z,26.21
2018-06-12T20:44:18.633Z,26.13
2018-06-12T20:46:47.714Z,26.08
2018-06-12T20:49:16.658Z,26.05
2018-06-12T20:51:45.668Z,26.12
2018-06-12T20:54:14.612Z,26.21
2018-06-12T20:56:43.891Z,26.24
2018-06-12T20:59:12.877Z,26.26
2018-06-12T21:01:41.917Z,26.24
2018-06-12T21:04:10.915Z,26.22
2018-06-12T21:06:39.888Z,26.17
2018-06-12T21:09:08.935Z,26.12
2018-06-12T21:11:37.930Z,26.06
2018-06-12T21:14:06.868Z,25.99
2018-06-12T21:16:35.937Z,25.95
2018-06-12T21:19:04.880Z,25.98
2018-06-12T21:21:33.888Z,25.96
2018-06-12T21:24:02.872Z,25.91
2018-06-12T21:26:31.810Z,25.85
2018-06-12T21:29:00.815Z,25.76
2018-06-12T21:31:29.766Z,25.67
2018-06-12T21:33:58.932Z,25.58
2018-06-12T21:36:27.899Z,25.48
2018-06-12T21:38:56.860Z,25.44
2018-06-12T21:41:25.824Z,25.40
2018-06-12T21:43:54.974Z,25.30
2018-06-12T21:46:24.044Z,25.16
2018-06-12T21:48:53.121Z,25.12
2018-06-12T21:51:22.141Z,25.05
2018-06-12T21:53:51.165Z,25.01
2018-06-12T21:56:20.197Z,24.90
2018-06-12T21:58:49.207Z,24.83
2018-06-12T22:01:18.172Z,24.78
2018-06-12T22:03:47.141Z,24.76
2018-06-12T22:06:16.108Z,24.74
2018-06-12T22:08:45.065Z,24.74
2018-06-12T22:11:14.064Z,24.72
2018-06-12T22:13:43.037Z,24.76
2018-06-12T22:16:12.852Z,24.77
2018-06-12T22:18:41.848Z,24.82
2018-06-12T22:21:10.801Z,24.83
2018-06-12T22:23:39.804Z,24.85
2018-06-12T22:26:08.760Z,24.90
2018-06-12T22:28:37.748Z,24.85
2018-06-12T22:31:07.012Z,24.73
2018-06-12T22:33:36.036Z,24.59
2018-06-12T22:36:05.440Z,24.47
2018-06-12T22:38:34.419Z,24.42
2018-06-12T22:41:03.371Z,24.36
2018-06-12T22:43:32.339Z,24.28
2018-06-12T22:46:01.384Z,24.20
2018-06-12T22:48:30.383Z,24.06
2018-06-12T22:50:59.335Z,23.98
2018-06-12T22:53:28.356Z,24.01
2018-06-12T22:55:57.312Z,23.92
2018-06-12T22:58:26.280Z,23.85
2018-06-12T23:00:55.281Z,23.86
2018-06-12T23:03:24.233Z,23.82
2018-06-12T23:05:53.200Z,23.78
2018-06-12T23:08:22.267Z,23.84
2018-06-12T23:10:51.315Z,23.76
2018-06-12T23:13:20.392Z,23.75
2018-06-12T23:15:49.376Z,23.78
2018-06-12T23:18:18.337Z,23.79
2018-06-12T23:20:58.350Z,23.71
2018-06-12T23:23:27.437Z,23.67
2018-06-12T23:25:56.445Z,23.60
2018-06-12T23:28:25.400Z,23.54
2018-06-12T23:30:54.469Z,23.50
2018-06-12T23:33:23.416Z,23.50
2018-06-12T23:35:52.368Z,23.47
2018-06-12T23:38:21.376Z,23.50
2018-06-12T23:40:50.326Z,23.46
2018-06-12T23:43:19.397Z,23.44
2018-06-12T23:45:48.408Z,23.46
2018-06-12T23:48:17.428Z,23.44
2018-06-12T23:50:46.444Z,23.43
2018-06-12T23:53:15.450Z,23.40
2018-06-12T23:55:44.504Z,23.43
2018-06-12T23:58:13.452Z,23.40
